Time;durP1;ratioP1;P1;durP2;ratioP2;P2;SDS_P1;SDS_P2;PMS_P1;PMS_P2;Temp;Humidity;BMP_temperature;BMP_pressure;BME280_temperature;BME280_humidity;BME280_pressure;Samples;Min_cycle;Max_cycle;Signal;HPM_P1;HPM_P2
2023/02/20 00:01:56;;;;;;;14.80;11.00;;;;;;;11.75;64.61;95126.72;5072859;28;20480;-77
2023/02/20 00:04:23;;;;;;;15.10;10.97;;;;;;;11.66;65.45;95130.13;5072624;28;20449;-77
2023/02/20 00:06:51;;;;;;;14.27;10.73;;;;;;;11.64;66.23;95140.78;5073152;28;20456;-76
2023/02/20 00:09:18;;;;;;;14.83;10.43;;;;;;;11.62;66.15;95134.81;5072484;28;21002;-77
2023/02/20 00:11:45;;;;;;;14.87;10.17;;;;;;;11.62;66.17;95129.56;5072629;28;20441;-77
2023/02/20 00:14:12;;;;;;;14.43;11.23;;;;;;;11.60;66.39;95141.19;5072493;28;20484;-76
2023/02/20 00:16:39;;;;;;;17.53;10.80;;;;;;;11.60;66.79;95134.13;5072439;28;20453;-77
2023/02/20 00:19:07;;;;;;;13.10;10.23;;;;;;;11.55;66.83;95132.81;5072164;28;20437;-77
2023/02/20 00:21:34;;;;;;;15.00;10.20;;;;;;;11.44;67.19;95137.22;5072194;28;20491;-76
2023/02/20 00:24:01;;;;;;;13.20;10.40;;;;;;;11.44;67.39;95137.22;5072511;28;20522;-77
2023/02/20 00:26:27;;;;;;;15.17;11.70;;;;;;;11.45;66.90;95152.00;5072481;28;20475;-77
2023/02/20 00:28:55;;;;;;;11.97;9.70;;;;;;;11.40;68.40;95137.59;5072304;28;20445;-77
2023/02/20 00:31:22;;;;;;;13.10;10.40;;;;;;;11.36;68.16;95152.78;5072405;28;20447;-77
2023/02/20 00:33:49;;;;;;;14.57;10.50;;;;;;;11.36;69.75;95157.22;5072242;28;20465;-76
2023/02/20 00:36:19;;;;;;;15.23;10.80;;;;;;;11.39;68.32;95157.78;5071817;28;20935;-77
2023/02/20 00:38:46;;;;;;;17.63;10.90;;;;;;;11.40;68.79;95145.47;5071963;28;20848;-77
2023/02/20 00:41:14;;;;;;;15.60;10.77;;;;;;;11.36;68.64;95142.28;5072082;28;20437;-77
2023/02/20 00:43:41;;;;;;;16.10;11.10;;;;;;;11.45;68.32;95141.50;5071702;28;20518;-77
2023/02/20 00:46:11;;;;;;;15.00;10.80;;;;;;;11.43;68.37;95132.09;5071815;28;20449;-76
2023/02/20 00:48:38;;;;;;;12.77;10.63;;;;;;;11.47;68.60;95123.81;5071641;28;20456;-77
2023/02/20 00:51:05;;;;;;;14.60;11.30;;;;;;;11.42;68.54;95120.75;5071842;28;20440;-77
2023/02/20 00:53:33;;;;;;;11.90;10.43;;;;;;;11.35;68.10;95124.03;5071933;28;20498;-77
2023/02/20 00:55:59;;;;;;;14.90;10.03;;;;;;;11.36;68.86;95131.78;5036246;28;20451;-77
2023/02/20 00:58:26;;;;;;;15.53;11.17;;;;;;;11.34;68.44;95130.25;5036037;28;20437;-76
2023/02/20 01:00:53;;;;;;;16.10;11.80;;;;;;;11.35;70.02;95139.78;5071972;28;20498;-77
2023/02/20 01:03:20;;;;;;;15.57;10.53;;;;;;;11.17;70.23;95135.09;5071209;28;20487;-76
2023/02/20 01:05:47;;;;;;;15.87;11.60;;;;;;;11.10;70.87;95127.84;5071864;28;20856;-77
2023/02/20 01:08:13;;;;;;;15.40;11.00;;;;;;;11.00;71.06;95132.22;5036069;28;20962;-76
2023/02/20 01:10:41;;;;;;;14.10;9.97;;;;;;;10.98;70.81;95148.06;5071608;28;20675;-76
2023/02/20 01:13:08;;;;;;;15.57;10.60;;;;;;;10.90;70.73;95162.78;5052446;28;20456;-76
2023/02/20 01:15:35;;;;;;;16.50;11.80;;;;;;;10.87;72.20;95161.25;5072180;28;20440;-77
2023/02/20 01:18:04;;;;;;;16.13;11.37;;;;;;;10.80;72.36;95160.09;5071385;28;20518;-77
2023/02/20 01:20:31;;;;;;;17.90;10.60;;;;;;;10.79;72.36;95180.25;5071406;28;21004;-76
2023/02/20 01:22:58;;;;;;;19.70;13.30;;;;;;;10.83;73.27;95180.84;5071533;28;21060;-77
2023/02/20 01:25:25;;;;;;;15.57;11.30;;;;;;;10.89;71.99;95180.34;5071254;28;20550;-76
2023/02/20 01:27:53;;;;;;;18.63;11.33;;;;;;;10.86;72.20;95176.19;5071382;28;20447;-77
2023/02/20 01:30:20;;;;;;;21.27;12.50;;;;;;;10.86;73.21;95197.19;5071192;28;20455;-77
2023/02/20 01:32:47;;;;;;;15.23;11.13;;;;;;;10.84;72.17;95185.97;5071513;28;20921;-77
2023/02/20 01:35:14;;;;;;;15.40;10.80;;;;;;;10.90;72.98;95191.66;5071219;28;20509;-77
2023/02/20 01:37:41;;;;;;;17.83;12.27;;;;;;;10.86;72.27;95191.94;5071497;28;20506;-76
2023/02/20 01:40:14;;;;;;;17.67;12.70;;;;;;;10.86;72.57;95186.66;5071490;28;20459;-76
2023/02/20 01:42:41;;;;;;;15.33;11.13;;;;;;;10.86;73.19;95191.94;5071193;28;20476;-76
2023/02/20 01:45:28;;;;;;;18.10;12.40;;;;;;;10.89;72.54;95182.97;5071099;28;20505;-77
2023/02/20 01:47:57;;;;;;;14.90;10.63;;;;;;;10.81;73.10;95182.75;5071099;28;20446;-77
2023/02/20 01:50:29;;;;;;;16.97;11.23;;;;;;;10.71;73.90;95202.84;5071175;28;20445;-76
2023/02/20 01:53:01;;;;;;;18.43;11.77;;;;;;;10.66;74.27;95204.97;5071099;28;20453;-76
2023/02/20 01:55:31;;;;;;;18.43;11.40;;;;;;;10.63;76.28;95202.59;5070990;28;20937;-76
2023/02/20 01:58:02;;;;;;;24.07;12.80;;;;;;;10.66;74.86;95199.72;5070962;28;20500;-77
2023/02/20 02:00:31;;;;;;;19.30;13.27;;;;;;;10.65;76.39;95198.91;5070965;28;20508;-76
2023/02/20 02:03:02;;;;;;;18.33;11.80;;;;;;;10.69;75.99;95202.94;5070982;28;20529;-77
2023/02/20 02:05:31;;;;;;;20.23;12.17;;;;;;;10.72;76.08;95199.25;5071118;28;20451;-77
2023/02/20 02:07:59;;;;;;;16.67;11.50;;;;;;;10.65;76.65;95206.75;5038398;28;20432;-77
2023/02/20 02:10:30;;;;;;;21.20;13.40;;;;;;;10.68;75.04;95208.31;5074859;28;20808;-77
2023/02/20 02:12:58;;;;;;;16.90;11.93;;;;;;;10.68;75.67;95217.03;5074980;28;20443;-76
2023/02/20 02:15:25;;;;;;;21.50;12.70;;;;;;;10.68;75.69;95219.63;5074705;28;20512;-76
2023/02/20 02:18:20;;;;;;;15.20;11.30;;;;;;;10.61;75.61;95220.25;5074993;28;20591;-76
2023/02/20 02:21:10;;;;;;;15.40;10.20;;;;;;;10.59;75.69;95214.31;5074503;28;20451;-76
2023/02/20 02:24:15;;;;;;;13.33;8.50;;;;;;;10.59;73.50;95215.13;5074513;28;20484;-77
2023/02/20 02:27:08;;;;;;;7.67;5.70;;;;;;;10.46;73.61;95231.03;5074297;28;20534;-77
2023/02/20 02:30:01;;;;;;;7.93;5.97;;;;;;;10.37;73.07;95228.28;5074638;28;20455;-76
2023/02/20 02:33:06;;;;;;;7.97;5.80;;;;;;;10.26;73.78;95228.28;5031927;28;20500;-76
2023/02/20 02:36:07;;;;;;;14.40;6.77;;;;;;;10.24;74.33;95241.53;4973155;28;20862;-76
2023/02/20 02:38:45;;;;;;;9.60;6.73;;;;;;;10.14;74.48;95227.44;4953633;29;20477;-76
2023/02/20 02:41:20;;;;;;;9.77;6.27;;;;;;;10.09;74.14;95232.19;4953966;29;20983;-76
2023/02/20 02:43:52;;;;;;;7.57;5.40;;;;;;;10.03;74.18;95230.88;4953740;29;20481;-77
2023/02/20 02:46:27;;;;;;;6.70;5.07;;;;;;;10.00;73.65;95218.00;4953652;29;20463;-76
2023/02/20 02:48:59;;;;;;;5.93;5.00;;;;;;;9.98;73.97;95222.53;4953668;29;20487;-76
2023/02/20 02:51:29;;;;;;;5.03;4.53;;;;;;;9.99;74.75;95246.97;4953692;29;20448;-77
2023/02/20 02:54:08;;;;;;;7.40;4.93;;;;;;;10.01;73.56;95251.13;4953512;29;20868;-77
2023/02/20 02:56:36;;;;;;;7.53;5.73;;;;;;;10.01;72.75;95251.13;4953428;29;20458;-77
2023/02/20 02:59:05;;;;;;;4.70;4.13;;;;;;;9.99;72.89;95246.97;4953227;29;20456;-77
2023/02/20 03:01:35;;;;;;;4.47;3.93;;;;;;;10.03;72.43;95258.88;4953425;29;21089;-77
2023/02/20 03:04:05;;;;;;;9.20;5.50;;;;;;;10.07;72.14;95261.13;4953093;29;20492;-77
2023/02/20 03:06:35;;;;;;;5.77;4.07;;;;;;;10.00;71.84;95264.38;4953331;29;20489;-76
2023/02/20 03:09:05;;;;;;;5.50;3.70;;;;;;;10.01;72.65;95273.91;4923917;28;20452;-77
2023/02/20 03:11:35;;;;;;;25.63;10.70;;;;;;;9.98;72.88;95274.97;4992144;28;20453;-77
2023/02/20 03:16:54;;;;;;;4.53;4.13;;;;;;;9.92;72.93;95263.16;5073661;28;20787;-77
2023/02/20 03:19:27;;;;;;;6.00;3.90;;;;;;;9.92;72.72;95259.72;5072278;28;20446;-77
2023/02/20 03:21:57;;;;;;;5.77;4.23;;;;;;;9.80;72.58;95269.31;5073489;28;20661;-76
2023/02/20 03:24:25;;;;;;;5.40;3.87;;;;;;;9.80;72.41;95268.50;5073091;28;20499;-76
2023/02/20 03:26:56;;;;;;;6.57;3.63;;;;;;;9.80;72.84;95266.69;5073381;28;20860;-76
2023/02/20 03:29:28;;;;;;;3.50;3.20;;;;;;;9.78;72.75;95271.22;5073545;28;20449;-76
2023/02/20 03:43:24;;;;;;;4.70;3.60;;;;;;;9.65;73.37;95288.84;5072963;28;20536;-77
2023/02/20 03:45:52;;;;;;;6.53;3.90;;;;;;;9.68;73.39;95285.97;5072895;28;20874;-76
2023/02/20 03:48:24;;;;;;;3.37;3.07;;;;;;;9.69;73.83;95295.50;5073101;28;20447;-76
2023/02/20 03:50:51;;;;;;;3.50;3.20;;;;;;;9.63;73.82;95296.81;5037506;28;20443;-77
2023/02/20 03:53:18;;;;;;;5.70;3.83;;;;;;;9.64;73.95;95297.66;5073300;28;20446;-77
2023/02/20 03:55:47;;;;;;;3.90;3.50;;;;;;;9.62;74.06;95275.97;5037464;28;20443;-77
2023/02/20 03:58:25;;;;;;;3.40;3.10;;;;;;;9.57;73.83;95292.03;5072597;28;20455;-76
2023/02/20 04:00:55;;;;;;;4.37;3.70;;;;;;;9.55;73.33;95287.88;5072711;28;20457;-76
2023/02/20 04:03:25;;;;;;;5.20;3.87;;;;;;;9.52;73.61;95315.09;5072423;28;20500;-76
2023/02/20 04:05:57;;;;;;;4.83;4.30;;;;;;;9.46;73.63;95314.72;5070545;28;20936;-77
2023/02/20 04:08:30;;;;;;;6.53;5.30;;;;;;;9.45;73.51;95305.19;5073180;28;20521;-76
2023/02/20 04:11:02;;;;;;;7.93;4.13;;;;;;;9.49;73.04;95293.53;5073373;28;20898;-77
2023/02/20 04:13:31;;;;;;;5.07;4.23;;;;;;;9.45;73.37;95311.25;5072944;28;20460;-76
2023/02/20 04:34:41;;;;;;;5.90;3.70;;;;;;;9.87;69.54;95325.59;5093845;27;20534;-74
2023/02/20 04:37:11;;;;;;;4.23;3.80;;;;;;;9.86;69.89;95336.19;5056943;28;20442;-73
2023/02/20 04:39:38;;;;;;;3.77;3.47;;;;;;;9.73;70.59;95338.03;5068734;28;20501;-74
2023/02/20 04:42:05;;;;;;;5.50;4.33;;;;;;;9.69;74.22;95332.19;5066519;28;20482;-74
2023/02/20 04:44:32;;;;;;;7.68;4.72;;;;;;;9.71;71.61;95322.44;5061534;28;20895;-74
2023/02/20 04:47:01;;;;;;;4.00;3.70;;;;;;;9.70;71.19;95318.16;5049179;28;20202;-73
2023/02/20 04:49:28;;;;;;;5.13;4.63;;;;;;;9.61;72.64;95329.31;5048795;28;20942;-73
2023/02/20 04:51:56;;;;;;;4.67;4.27;;;;;;;9.54;71.14;95320.22;5048661;28;20931;-75
2023/02/20 04:54:23;;;;;;;4.03;3.67;;;;;;;9.53;72.11;95342.13;5049024;28;20453;-74
2023/02/20 04:56:50;;;;;;;5.70;4.00;;;;;;;9.47;71.82;95342.56;5048853;28;20453;-74
2023/02/20 04:59:17;;;;;;;9.50;3.43;;;;;;;9.40;71.27;95349.22;5048856;28;20503;-75
2023/02/20 05:01:47;;;;;;;5.53;4.27;;;;;;;9.37;70.95;95360.75;5049125;28;20487;-74
2023/02/20 05:04:14;;;;;;;29.43;12.60;;;;;;;9.39;70.33;95347.56;5048784;28;20441;-75
2023/02/20 05:06:42;;;;;;;6.63;3.70;;;;;;;9.29;70.09;95340.38;5048900;28;20898;-74
2023/02/20 05:09:10;;;;;;;5.33;3.70;;;;;;;9.11;70.31;95352.16;5048871;28;20483;-75
2023/02/20 05:11:38;;;;;;;7.60;3.77;;;;;;;9.11;69.51;95356.56;5048673;28;20494;-75
2023/02/20 05:14:05;;;;;;;5.03;3.73;;;;;;;9.08;69.49;95370.72;5048847;28;20815;-73
2023/02/20 05:16:32;;;;;;;6.23;4.30;;;;;;;9.05;69.54;95352.59;5029632;28;20440;-73
2023/02/20 05:18:59;;;;;;;3.37;3.07;;;;;;;9.09;69.27;95369.75;5048902;28;20447;-73
2023/02/20 05:24:13;;;;;;;3.30;3.00;;;;;;;9.09;69.03;95371.53;5048248;28;20581;-73
2023/02/20 05:26:39;;;;;;;3.30;3.00;;;;;;;9.10;67.69;95384.53;5048529;28;20855;-73
2023/02/20 05:29:08;;;;;;;6.40;2.80;;;;;;;9.08;67.43;95364.63;5049312;28;20446;-72
2023/02/20 05:31:35;;;;;;;5.23;3.63;;;;;;;9.05;67.34;95373.53;5048493;28;20529;-74
2023/02/20 05:34:02;;;;;;;5.67;3.27;;;;;;;9.13;67.02;95383.47;5037053;28;20476;-74
2023/02/20 05:36:29;;;;;;;3.40;3.10;;;;;;;9.28;67.06;95371.91;5028041;28;20534;-74
2023/02/20 05:38:55;;;;;;;4.67;3.00;;;;;;;9.68;66.35;95393.41;5036206;28;20445;-74
2023/02/20 05:41:24;;;;;;;7.03;3.67;;;;;;;10.45;64.06;95405.16;5005156;28;20485;-74
2023/02/20 05:43:53;;;;;;;4.97;4.47;;;;;;;10.95;62.22;95408.25;5054045;28;20713;-75
2023/02/20 05:46:20;;;;;;;5.70;4.20;;;;;;;11.48;60.55;95408.44;5054489;28;20445;-75
2023/02/20 05:48:49;;;;;;;5.60;4.33;;;;;;;11.82;59.40;95405.75;5054293;28;20472;-74
2023/02/20 05:51:20;;;;;;;7.50;6.20;;;;;;;12.13;57.82;95404.91;5054742;28;20521;-74
2023/02/20 05:53:47;;;;;;;5.03;4.53;;;;;;;12.65;55.86;95421.63;5052868;28;20463;-74
2023/02/20 05:56:14;;;;;;;7.27;5.60;;;;;;;12.54;57.36;95404.09;5036713;28;20851;-74
2023/02/20 05:58:44;;;;;;;6.20;5.07;;;;;;;12.34;58.17;95412.81;5034276;28;20460;-74
2023/02/20 06:01:17;;;;;;;7.40;6.10;;;;;;;12.37;61.47;95417.84;5034354;28;20936;-74
2023/02/20 06:03:44;;;;;;;9.73;5.30;;;;;;;12.50;66.68;95407.13;5034306;28;20529;-75
2023/02/20 06:06:10;;;;;;;10.37;6.80;;;;;;;12.55;58.16;95402.31;5034225;28;20447;-75
2023/02/20 06:08:38;;;;;;;11.53;5.80;;;;;;;12.41;57.47;95412.19;5033304;28;20443;-75
2023/02/20 06:11:05;;;;;;;6.70;5.30;;;;;;;12.43;56.59;95416.47;5052362;28;20433;-74
2023/02/20 06:13:32;;;;;;;6.37;5.40;;;;;;;12.67;57.79;95424.94;5053139;28;20453;-76
2023/02/20 06:16:00;;;;;;;11.17;8.33;;;;;;;13.17;54.07;95418.03;5054309;28;20443;-74
2023/02/20 06:18:27;;;;;;;5.30;4.80;;;;;;;13.17;52.64;95414.53;5053211;28;20526;-75
2023/02/20 06:20:53;;;;;;;6.80;4.33;;;;;;;13.01;53.13;95426.41;5041637;28;20505;-74
2023/02/20 06:23:20;;;;;;;8.93;4.20;;;;;;;12.77;51.67;95420.59;5053910;28;20487;-75
2023/02/20 06:25:47;;;;;;;5.20;4.70;;;;;;;12.68;52.43;95421.34;5045649;28;20442;-75
2023/02/20 06:28:14;;;;;;;4.40;4.00;;;;;;;12.51;52.17;95424.59;5052968;28;20469;-75
2023/02/20 06:30:40;;;;;;;5.77;4.20;;;;;;;12.85;51.23;95433.09;5053959;28;20495;-74
2023/02/20 06:33:09;;;;;;;6.57;5.70;;;;;;;13.10;50.30;95430.03;5054078;28;20469;-74
2023/02/20 06:35:35;;;;;;;4.10;3.47;;;;;;;13.33;49.38;95428.09;5053906;28;20473;-72
2023/02/20 06:38:02;;;;;;;4.20;3.63;;;;;;;13.13;49.89;95437.69;5054075;28;20449;-73
2023/02/20 06:40:29;;;;;;;9.13;3.33;;;;;;;13.10;51.85;95437.09;5053973;28;20455;-74
2023/02/20 06:42:56;;;;;;;5.63;4.30;;;;;;;12.86;50.01;95438.25;5053267;28;20583;-73
2023/02/20 06:45:22;;;;;;;6.37;4.40;;;;;;;12.70;50.16;95456.28;5052801;28;20446;-74
2023/02/20 06:47:49;;;;;;;14.77;4.47;;;;;;;12.66;51.65;95444.34;5018528;28;20441;-74
2023/02/20 06:50:18;;;;;;;6.43;4.37;;;;;;;12.53;51.60;95456.88;5053937;28;20442;-74
2023/02/20 06:52:44;;;;;;;7.47;4.80;;;;;;;12.43;51.48;95453.31;5053423;28;20870;-74
2023/02/20 06:55:11;;;;;;;7.27;4.87;;;;;;;12.14;51.77;95445.19;5053178;28;20453;-74
2023/02/20 06:57:38;;;;;;;4.47;3.93;;;;;;;12.00;53.71;95443.72;5053270;28;20465;-74
2023/02/20 07:00:06;;;;;;;6.57;4.50;;;;;;;12.01;53.31;95458.53;5053263;28;20433;-76
2023/02/20 07:02:36;;;;;;;7.00;4.23;;;;;;;11.90;58.25;95471.72;5053271;28;20488;-74
2023/02/20 07:05:04;;;;;;;5.77;3.97;;;;;;;11.90;53.95;95466.47;5034384;28;20441;-74
2023/02/20 07:07:32;;;;;;;5.13;4.57;;;;;;;11.84;54.19;95461.69;5053178;28;20457;-74
2023/02/20 07:10:00;;;;;;;4.17;3.77;;;;;;;11.88;54.16;95458.72;5053150;28;20446;-74
2023/02/20 07:12:29;;;;;;;5.40;3.60;;;;;;;11.87;53.24;95459.66;5034237;28;20528;-74
2023/02/20 07:14:56;;;;;;;4.30;3.63;;;;;;;11.93;53.89;95453.06;5053043;28;20458;-73
2023/02/20 07:17:23;;;;;;;4.50;4.07;;;;;;;11.93;53.90;95453.91;5053285;28;20446;-74
2023/02/20 07:19:50;;;;;;;3.73;3.43;;;;;;;11.83;52.98;95437.19;5053283;28;20442;-75
2023/02/20 07:22:17;;;;;;;7.13;5.27;;;;;;;11.61;54.08;95450.38;5052704;28;20492;-75
2023/02/20 07:24:50;;;;;;;4.07;3.00;;;;;;;11.56;52.51;95458.59;5052827;28;20575;-74
2023/02/20 07:27:17;;;;;;;5.83;4.80;;;;;;;11.83;53.76;95468.75;5052761;28;20449;-74
2023/02/20 07:29:46;;;;;;;6.03;3.93;;;;;;;11.87;52.13;95454.41;5052845;28;20449;-74
2023/02/20 07:32:13;;;;;;;25.63;8.90;;;;;;;11.89;54.06;95444.59;5052656;28;20461;-74
2023/02/20 07:34:39;;;;;;;11.20;5.67;;;;;;;11.87;49.88;95440.44;5052629;28;20546;-74
2023/02/20 07:37:08;;;;;;;7.13;4.70;;;;;;;11.85;49.73;95443.16;5052661;28;20446;-75
2023/02/20 07:39:35;;;;;;;12.60;3.07;;;;;;;11.76;49.74;95439.44;5052523;28;20752;-74
2023/02/20 07:42:03;;;;;;;5.23;2.87;;;;;;;11.66;49.29;95437.69;5033457;28;20535;-75
2023/02/20 07:44:30;;;;;;;3.77;2.90;;;;;;;11.54;51.38;95444.75;5052286;28;20577;-73
2023/02/20 07:46:57;;;;;;;3.90;2.57;;;;;;;11.39;49.83;95443.34;5052526;28;20453;-74
2023/02/20 07:49:23;;;;;;;4.10;2.60;;;;;;;11.23;50.31;95456.00;5052669;28;20452;-73
2023/02/20 07:51:50;;;;;;;2.93;2.63;;;;;;;11.22;50.08;95446.47;5052220;28;20569;-74
2023/02/20 07:54:17;;;;;;;4.10;2.70;;;;;;;11.25;50.20;95448.84;5052400;28;20503;-73
2023/02/20 07:56:44;;;;;;;5.70;2.63;;;;;;;11.28;53.25;95459.16;5052247;28;20457;-74
2023/02/20 07:59:15;;;;;;;2.90;2.50;;;;;;;11.28;50.62;95453.88;5052518;28;20974;-74
2023/02/20 08:01:42;;;;;;;3.13;1.70;;;;;;;11.36;48.83;95447.06;5052064;28;20849;-73
2023/02/20 08:04:09;;;;;;;11.30;2.50;;;;;;;11.29;49.83;95455.56;5052010;28;20481;-75
2023/02/20 08:06:35;;;;;;;3.60;2.03;;;;;;;11.22;52.48;95462.22;5052084;28;20441;-75
2023/02/20 08:09:03;;;;;;;4.57;2.17;;;;;;;11.23;49.21;95458.63;5051855;28;20468;-75
2023/02/20 08:11:33;;;;;;;3.73;1.93;;;;;;;11.07;48.95;95454.59;5016777;28;20433;-73
2023/02/20 08:14:00;;;;;;;2.90;2.33;;;;;;;11.12;48.01;95454.25;5052250;28;20449;-73
2023/02/20 08:16:28;;;;;;;11.17;2.57;;;;;;;11.22;49.92;95460.44;5051993;28;20457;-73
2023/02/20 08:18:55;;;;;;;3.07;2.13;;;;;;;11.35;47.64;95470.84;5017132;28;20449;-74
2023/02/20 08:21:22;;;;;;;3.07;2.87;;;;;;;11.42;47.94;95459.72;5051243;28;20442;-75
2023/02/20 08:23:51;;;;;;;3.20;2.60;;;;;;;11.40;48.41;95458.16;5051982;28;20492;-74
2023/02/20 08:26:21;;;;;;;4.90;2.73;;;;;;;11.44;47.17;95470.09;5052212;28;20449;-74
2023/02/20 08:28:48;;;;;;;19.67;5.97;;;;;;;11.44;48.47;95460.41;5052499;28;20446;-74
2023/02/20 08:31:16;;;;;;;7.97;4.23;;;;;;;11.60;47.83;95460.06;5033764;28;20499;-74
2023/02/20 08:33:47;;;;;;;3.70;3.00;;;;;;;11.52;47.26;95457.19;5052438;28;20481;-74
2023/02/20 08:36:17;;;;;;;16.00;4.10;;;;;;;11.57;48.17;95455.03;5052284;28;20450;-77
2023/02/20 08:38:44;;;;;;;3.97;2.53;;;;;;;11.48;48.03;95471.53;5052277;28;20454;-76
2023/02/20 08:41:13;;;;;;;3.27;2.70;;;;;;;11.49;46.31;95446.91;5052621;28;20456;-75
2023/02/20 08:43:42;;;;;;;4.83;2.03;;;;;;;11.61;47.44;95453.00;5051944;28;20530;-76
2023/02/20 08:46:09;;;;;;;5.47;2.53;;;;;;;11.70;46.95;95474.13;5052524;28;20450;-74
2023/02/20 08:48:36;;;;;;;10.23;2.90;;;;;;;11.69;46.46;95451.44;5052362;28;20449;-73
2023/02/20 08:51:05;;;;;;;10.93;2.00;;;;;;;11.75;46.24;95456.19;5045284;28;20496;-73
2023/02/20 08:53:32;;;;;;;2.27;2.03;;;;;;;11.85;46.94;95450.22;5032308;28;20848;-75
2023/02/20 08:55:59;;;;;;;2.13;1.93;;;;;;;11.94;49.85;95449.47;5013752;28;20451;-72
2023/02/20 08:58:26;;;;;;;4.43;2.13;;;;;;;11.87;46.38;95457.03;5032504;28;20776;-75
2023/02/20 09:00:54;;;;;;;8.50;2.77;;;;;;;11.88;48.19;95452.63;4997395;28;20859;-74
2023/02/20 09:03:21;;;;;;;5.50;1.60;;;;;;;11.88;45.91;95442.09;5013669;28;20481;-73
2023/02/20 09:05:48;;;;;;;1.80;1.50;;;;;;;11.91;46.38;95444.47;5032343;28;20955;-74
2023/02/20 09:08:16;;;;;;;3.97;2.10;;;;;;;12.14;45.28;95440.78;5033462;28;20450;-74
2023/02/20 09:10:43;;;;;;;1.90;1.80;;;;;;;12.07;46.86;95437.81;5035967;28;20442;-74
2023/02/20 09:13:10;;;;;;;2.37;2.17;;;;;;;12.01;46.42;95435.69;5035782;28;20500;-74
2023/02/20 09:15:38;;;;;;;12.20;3.10;;;;;;;12.20;46.68;95445.56;5035363;28;20504;-74
2023/02/20 09:18:08;;;;;;;3.83;2.27;;;;;;;12.35;45.94;95425.03;5035417;28;20486;-73
2023/02/20 09:20:35;;;;;;;5.07;2.27;;;;;;;12.40;45.34;95444.72;5035416;28;20450;-74
2023/02/20 09:23:02;;;;;;;1.90;1.60;;;;;;;12.34;45.23;95434.72;5035427;28;20535;-73
2023/02/20 09:25:30;;;;;;;7.83;3.80;;;;;;;12.36;45.46;95424.06;5035401;28;20949;-73
2023/02/20 09:27:58;;;;;;;3.83;2.00;;;;;;;12.36;46.17;95429.31;5035252;28;20740;-73
2023/02/20 09:30:25;;;;;;;7.13;2.20;;;;;;;12.34;45.61;95431.25;5035098;28;20548;-74
2023/02/20 09:32:53;;;;;;;4.63;1.80;;;;;;;12.34;46.28;95423.34;5015964;28;21019;-74
2023/02/20 09:35:24;;;;;;;3.73;1.83;;;;;;;12.11;46.84;95412.09;5035020;28;20933;-74
2023/02/20 09:37:51;;;;;;;2.17;1.80;;;;;;;12.22;46.57;95435.75;5034911;28;20443;-72
2023/02/20 09:40:21;;;;;;;4.70;1.80;;;;;;;12.26;48.70;95425.78;5035095;28;20451;-73
2023/02/20 09:43:05;;;;;;;12.43;2.13;;;;;;;12.28;48.04;95429.13;5034714;28;20575;-73
2023/02/20 09:45:33;;;;;;;6.27;2.13;;;;;;;12.19;47.22;95430.72;5035853;28;20933;-73
2023/02/20 09:48:11;;;;;;;2.80;2.57;;;;;;;12.12;47.55;95431.34;5035159;28;20505;-73
2023/02/20 09:50:44;;;;;;;3.73;1.90;;;;;;;12.22;47.93;95424.38;5035043;28;20454;-73
2023/02/20 09:53:19;;;;;;;2.70;1.63;;;;;;;12.19;48.28;95441.25;5034665;28;20506;-74
2023/02/20 09:55:47;;;;;;;3.50;1.97;;;;;;;12.26;46.58;95446.84;5035099;28;20450;-74
2023/02/20 09:58:23;;;;;;;4.97;1.70;;;;;;;12.40;47.46;95426.31;5035063;28;20506;-74
2023/02/20 10:00:52;;;;;;;2.90;1.77;;;;;;;12.50;46.85;95451.88;5035173;28;20450;-73
2023/02/20 10:03:29;;;;;;;1.70;1.60;;;;;;;12.54;46.13;95445.38;5034630;28;20692;-74
2023/02/20 10:05:57;;;;;;;1.77;1.63;;;;;;;12.54;47.38;95451.50;5034742;28;20449;-73
2023/02/20 10:08:24;;;;;;;2.20;1.97;;;;;;;12.60;45.33;95458.03;5034384;28;20861;-74
2023/02/20 10:10:54;;;;;;;3.83;1.40;;;;;;;12.46;45.22;95447.84;5034403;28;20509;-75
2023/02/20 10:13:39;;;;;;;6.03;2.20;;;;;;;12.55;45.94;95457.59;5034802;28;20793;-74
2023/02/20 10:16:19;;;;;;;5.00;2.20;;;;;;;12.50;44.94;95457.13;5034339;28;20504;-75
2023/02/20 10:18:54;;;;;;;3.47;3.03;;;;;;;12.34;45.55;95453.13;5034259;28;20453;-73
2023/02/20 10:21:36;;;;;;;3.63;2.20;;;;;;;12.40;43.91;95436.00;5015831;28;20434;-74
2023/02/20 10:24:19;;;;;;;2.40;1.87;;;;;;;12.48;44.42;95432.75;5034314;28;20491;-73
2023/02/20 10:26:51;;;;;;;2.47;2.03;;;;;;;12.52;43.61;95431.53;5015627;28;20792;-73
2023/02/20 10:29:23;;;;;;;2.77;2.03;;;;;;;12.64;43.02;95431.31;5034118;28;20450;-72
2023/02/20 10:31:54;;;;;;;1.70;1.60;;;;;;;12.69;41.88;95410.69;5034140;28;20451;-74
2023/02/20 10:34:25;;;;;;;6.63;2.97;;;;;;;12.68;42.87;95429.25;5034066;28;20470;-73
2023/02/20 10:36:56;;;;;;;5.00;3.50;;;;;;;12.75;42.60;95433.06;5033887;28;20447;-72
2023/02/20 10:39:24;;;;;;;1.70;1.60;;;;;;;12.75;43.30;95426.97;5034117;28;20676;-73
2023/02/20 10:41:55;;;;;;;3.97;2.40;;;;;;;12.70;42.88;95408.88;5015950;28;20450;-73
2023/02/20 10:44:30;;;;;;;2.57;1.73;;;;;;;12.78;41.29;95411.72;5033774;28;20487;-74
2023/02/20 10:47:02;;;;;;;2.80;1.90;;;;;;;12.75;41.98;95417.25;5035137;28;20454;-74
2023/02/20 10:49:36;;;;;;;3.17;1.50;;;;;;;12.84;41.50;95408.56;5015687;28;20451;-74
2023/02/20 10:52:08;;;;;;;1.47;1.37;;;;;;;12.80;40.30;95403.69;5033794;28;20805;-73
2023/02/20 10:54:41;;;;;;;1.67;1.57;;;;;;;12.73;41.30;95408.66;5033647;28;21010;-74
2023/02/20 10:57:15;;;;;;;2.60;1.93;;;;;;;12.73;41.55;95403.38;5033542;28;20440;-73
2023/02/20 10:59:48;;;;;;;1.70;1.60;;;;;;;12.62;41.99;95396.38;5033389;28;20436;-74
2023/02/20 11:02:18;;;;;;;9.43;1.93;;;;;;;12.66;40.90;95400.41;4999313;28;20856;-73
2023/02/20 11:04:50;;;;;;;2.03;1.73;;;;;;;12.77;41.85;95406.59;5033258;28;20564;-73
2023/02/20 11:07:18;;;;;;;2.00;1.90;;;;;;;12.84;40.79;95418.25;5033849;28;20485;-73
2023/02/20 11:09:45;;;;;;;1.33;1.23;;;;;;;12.89;41.18;95408.16;5033443;28;20449;-74
2023/02/20 11:12:23;;;;;;;1.80;1.70;;;;;;;12.90;41.59;95418.56;5031367;28;20470;-79
2023/02/20 11:14:53;;;;;;;1.53;1.30;;;;;;;13.04;40.93;95417.41;5033843;28;20778;-74
2023/02/20 11:17:25;;;;;;;4.00;2.20;;;;;;;13.14;41.37;95414.78;5052128;28;21002;-74
2023/02/20 11:19:53;;;;;;;6.80;5.10;;;;;;;13.24;41.45;95413.88;5053357;28;20461;-73
2023/02/20 11:22:39;;;;;;;4.70;3.33;;;;;;;13.27;40.68;95416.25;5052307;28;20445;-73
2023/02/20 11:25:19;;;;;;;3.30;2.27;;;;;;;13.32;40.86;95410.59;5052160;28;20487;-72
2023/02/20 11:27:48;;;;;;;7.90;2.33;;;;;;;13.35;40.15;95414.78;5041109;28;20446;-73
2023/02/20 11:30:30;;;;;;;2.20;1.53;;;;;;;13.26;40.90;95416.38;5017392;28;20778;-74
2023/02/20 11:33:05;;;;;;;1.57;1.47;;;;;;;13.19;38.69;95399.44;5052497;28;20556;-73
2023/02/20 11:35:37;;;;;;;1.57;1.47;;;;;;;13.18;39.56;95403.06;5046325;28;20450;-73
2023/02/20 11:38:24;;;;;;;3.50;2.47;;;;;;;13.25;40.75;95396.28;5052588;28;20450;-76
2023/02/20 11:41:06;;;;;;;2.00;1.80;;;;;;;13.27;42.77;95407.50;5052471;28;20451;-73
2023/02/20 11:43:35;;;;;;;3.60;2.10;;;;;;;13.42;41.67;95411.47;5051790;28;21006;-73
2023/02/20 11:46:14;;;;;;;7.90;1.83;;;;;;;13.47;42.11;95409.25;5052369;28;20451;-75
2023/02/20 11:49:00;;;;;;;2.40;2.07;;;;;;;13.53;41.59;95399.97;5052769;28;20520;-75
2023/02/20 11:51:35;;;;;;;9.90;2.20;;;;;;;13.42;41.91;95390.38;5052575;28;20534;-74
2023/02/20 11:54:16;;;;;;;3.17;2.60;;;;;;;13.33;42.82;95401.72;5051825;28;20517;-75
2023/02/20 11:57:00;;;;;;;1.87;1.70;;;;;;;13.31;42.05;95409.78;5052609;28;20447;-74
2023/02/20 11:59:33;;;;;;;5.60;2.90;;;;;;;13.30;42.78;95405.47;5052467;28;20517;-74
2023/02/20 12:02:23;;;;;;;1.73;1.60;;;;;;;13.38;42.06;95398.69;5052482;28;20461;-75
2023/02/20 12:05:11;;;;;;;13.73;3.03;;;;;;;13.18;42.68;95376.69;5038282;28;20495;-74
2023/02/20 12:07:41;;;;;;;4.73;3.00;;;;;;;13.03;42.29;95369.16;5052196;28;20455;-73
2023/02/20 12:10:22;;;;;;;5.00;1.67;;;;;;;13.11;42.53;95383.44;5052291;28;20933;-73
2023/02/20 12:12:49;;;;;;;3.63;1.80;;;;;;;13.24;41.88;95382.25;5037432;28;20500;-73
2023/02/20 12:15:19;;;;;;;1.50;1.40;;;;;;;13.20;41.86;95385.31;5051981;28;20459;-74
2023/02/20 12:18:04;;;;;;;1.60;1.43;;;;;;;13.13;44.24;95384.16;5051813;28;20459;-74
2023/02/20 12:20:33;;;;;;;1.60;1.50;;;;;;;13.25;42.90;95388.38;5052083;28;20450;-74
2023/02/20 12:23:11;;;;;;;1.90;1.70;;;;;;;13.26;41.80;95390.03;5016936;28;20455;-73